Time;durP1;ratioP1;P1;durP2;ratioP2;P2;SDS_P1;SDS_P2;PMS_P1;PMS_P2;Temp;Humidity;BMP_temperature;BMP_pressure;BME280_temperature;BME280_humidity;BME280_pressure;Samples;Min_cycle;Max_cycle;Signal;HPM_P1;HPM_P2
2021/11/24 00:01:19;;;;;;;2.10;1.10;;;;;;;17.39;57.77;102945.97;5075611;28;20040;-78
2021/11/24 00:03:45;;;;;;;1.95;1.30;;;;;;;17.39;57.79;102938.16;5059154;28;20020;-80
2021/11/24 00:06:10;;;;;;;1.98;1.50;;;;;;;17.39;57.64;102936.44;5058610;28;20027;-79
2021/11/24 00:08:36;;;;;;;1.88;1.27;;;;;;;17.39;57.95;102931.22;5075367;28;20031;-79
2021/11/24 00:11:01;;;;;;;3.00;1.52;;;;;;;17.40;58.12;102924.31;5075657;28;20478;-79
2021/11/24 00:13:26;;;;;;;1.92;1.23;;;;;;;17.39;58.20;102931.22;5093470;28;20166;-79
2021/11/24 00:15:52;;;;;;;2.08;1.40;;;;;;;17.40;57.59;102926.94;5093692;28;20025;-79
2021/11/24 00:18:17;;;;;;;1.98;1.30;;;;;;;17.40;57.69;102924.31;5058288;28;20032;-80
2021/11/24 00:20:43;;;;;;;1.60;1.02;;;;;;;17.40;57.83;102916.50;5075121;28;20043;-81
2021/11/24 00:23:08;;;;;;;2.05;1.23;;;;;;;17.41;57.83;102913.06;5058445;28;20119;-80
2021/11/24 00:25:33;;;;;;;2.13;1.40;;;;;;;17.40;57.83;102912.19;5058557;28;20036;-80
2021/11/24 00:27:59;;;;;;;2.28;1.33;;;;;;;17.40;57.59;102904.38;5075155;28;20031;-81
2021/11/24 00:30:24;;;;;;;2.08;1.30;;;;;;;17.40;57.86;102904.38;5058386;28;20024;-80
2021/11/24 00:32:51;;;;;;;3.00;1.20;;;;;;;17.41;57.77;102907.84;5058767;28;20032;-80
2021/11/24 00:35:17;;;;;;;1.77;1.30;;;;;;;17.41;57.78;102908.72;5058425;28;20034;-80
2021/11/24 00:37:42;;;;;;;1.95;1.20;;;;;;;17.42;57.75;102904.38;5074682;28;20040;-81
2021/11/24 00:40:09;;;;;;;1.90;1.30;;;;;;;17.41;57.92;102897.44;5074853;28;20078;-82
2021/11/24 00:42:34;;;;;;;2.38;1.30;;;;;;;17.41;58.12;102900.91;5074840;28;20087;-80
2021/11/24 00:45:00;;;;;;;3.33;1.20;;;;;;;17.42;57.79;102909.59;5075956;28;20110;-80
2021/11/24 00:47:25;;;;;;;1.58;1.10;;;;;;;17.41;58.03;102903.53;5078520;28;20082;-79
2021/11/24 00:49:50;;;;;;;1.63;1.30;;;;;;;17.42;57.93;102907.91;5078523;28;20034;-80
2021/11/24 00:52:16;;;;;;;1.75;1.20;;;;;;;17.42;58.00;102907.00;5078675;28;20027;-81
2021/11/24 00:54:41;;;;;;;1.83;1.20;;;;;;;17.42;58.01;102904.38;5045181;28;20075;-79
2021/11/24 00:57:07;;;;;;;1.73;1.10;;;;;;;17.42;57.94;102901.78;5078770;28;20054;-79
2021/11/24 00:59:33;;;;;;;2.05;1.33;;;;;;;17.42;58.07;102896.59;5045939;28;20036;-80
2021/11/24 01:01:58;;;;;;;1.55;1.27;;;;;;;17.43;57.93;102893.16;5061778;28;20052;-81
2021/11/24 01:04:23;;;;;;;1.75;1.20;;;;;;;17.43;57.98;102900.97;5061737;28;20423;-82
2021/11/24 01:06:49;;;;;;;2.58;1.20;;;;;;;17.43;58.03;102887.94;5061700;28;20478;-81
2021/11/24 01:09:14;;;;;;;1.70;1.30;;;;;;;17.44;57.77;102892.28;5078290;28;20154;-81
2021/11/24 01:11:40;;;;;;;1.65;1.10;;;;;;;17.42;58.24;102889.69;5096666;28;20035;-81
2021/11/24 01:14:06;;;;;;;2.10;1.30;;;;;;;17.43;57.98;102896.63;5061295;28;20116;-79
2021/11/24 01:16:32;;;;;;;1.52;1.10;;;;;;;17.41;57.96;102885.28;5078051;28;20373;-81
2021/11/24 01:18:57;;;;;;;1.70;1.20;;;;;;;17.44;58.15;102884.47;5044578;28;20115;-82
2021/11/24 01:21:23;;;;;;;2.03;1.15;;;;;;;17.44;58.16;102889.69;5061450;28;20417;-83
2021/11/24 01:23:48;;;;;;;1.75;1.08;;;;;;;17.44;58.11;102884.47;5078074;28;20024;-80
2021/11/24 01:26:14;;;;;;;1.98;1.40;;;;;;;17.44;58.12;102882.78;5077757;28;20027;-82
2021/11/24 01:28:40;;;;;;;1.70;1.17;;;;;;;17.44;58.09;102880.19;5077553;28;20020;-82
2021/11/24 01:31:05;;;;;;;1.67;1.10;;;;;;;17.44;58.19;102884.47;5077782;28;20020;-82
2021/11/24 01:33:31;;;;;;;2.35;1.60;;;;;;;17.43;58.18;102878.41;5061090;28;20488;-79
2021/11/24 01:35:57;;;;;;;1.80;1.17;;;;;;;17.46;58.09;102875.00;5077639;28;20485;-78
2021/11/24 01:38:22;;;;;;;1.30;0.98;;;;;;;17.45;58.24;102874.13;5058519;28;20049;-80
2021/11/24 01:40:48;;;;;;;1.92;1.02;;;;;;;17.45;58.28;102870.66;5021173;28;20533;-81
2021/11/24 01:43:13;;;;;;;1.70;1.00;;;;;;;17.45;58.23;102866.31;5054375;28;20036;-79
2021/11/24 01:45:39;;;;;;;1.27;0.90;;;;;;;17.45;58.13;102868.91;5037511;28;20467;-76
2021/11/24 01:48:05;;;;;;;1.60;1.00;;;;;;;17.44;58.43;102863.66;5054095;28;20078;-75
2021/11/24 01:50:30;;;;;;;1.30;0.90;;;;;;;17.44;58.13;102863.66;5037446;28;20083;-75
2021/11/24 01:52:56;;;;;;;1.77;1.10;;;;;;;17.43;57.98;102862.78;5037516;28;20025;-76
2021/11/24 01:55:22;;;;;;;1.52;1.02;;;;;;;17.43;58.09;102857.59;5055073;28;20562;-77
2021/11/24 01:57:50;;;;;;;1.50;1.10;;;;;;;17.43;58.10;102857.59;5053865;28;20029;-76
2021/11/24 02:00:19;;;;;;;2.47;1.00;;;;;;;17.43;58.22;102851.50;5053928;28;20040;-75
2021/11/24 02:02:45;;;;;;;1.55;1.13;;;;;;;17.43;58.10;102852.38;5054508;28;20029;-75
2021/11/24 02:05:10;;;;;;;2.33;1.00;;;;;;;17.43;58.17;102839.38;5054314;28;20025;-75
2021/11/24 02:07:36;;;;;;;2.13;1.20;;;;;;;17.43;58.08;102843.69;5038009;28;20483;-76
2021/11/24 02:10:03;;;;;;;1.80;1.05;;;;;;;17.42;58.18;102831.50;5056475;28;20032;-75
2021/11/24 02:12:28;;;;;;;1.38;1.10;;;;;;;17.43;58.25;102828.09;5046813;28;20056;-75
2021/11/24 02:14:53;;;;;;;2.92;1.25;;;;;;;17.42;58.16;102827.22;5057143;28;20051;-75
2021/11/24 02:17:19;;;;;;;1.83;1.10;;;;;;;17.41;58.11;102825.44;5023045;28;20116;-76
2021/11/24 02:19:45;;;;;;;1.90;1.38;;;;;;;17.41;58.21;102819.34;5038916;28;20059;-76
2021/11/24 02:22:11;;;;;;;1.40;1.00;;;;;;;17.41;58.26;102817.63;5038360;28;20028;-77
2021/11/24 02:24:38;;;;;;;1.73;1.17;;;;;;;17.41;58.16;102814.16;5053422;28;20115;-76
2021/11/24 02:27:07;;;;;;;1.25;1.00;;;;;;;17.41;58.07;102815.03;5037441;28;20099;-75
2021/11/24 02:29:32;;;;;;;1.90;1.10;;;;;;;17.41;58.07;102809.81;5053861;28;20055;-76
2021/11/24 02:32:00;;;;;;;1.52;1.20;;;;;;;17.41;58.18;102807.22;5053205;28;20025;-76
2021/11/24 02:34:27;;;;;;;1.67;1.10;;;;;;;17.41;58.00;102806.34;5054507;28;20025;-76
2021/11/24 02:36:53;;;;;;;1.42;0.90;;;;;;;17.41;57.94;102806.34;5059556;28;20056;-76
2021/11/24 02:39:19;;;;;;;1.73;1.13;;;;;;;17.40;58.20;102802.88;5076240;28;20044;-75
2021/11/24 02:41:44;;;;;;;1.73;1.00;;;;;;;17.40;58.04;102802.00;5076123;28;20031;-75
2021/11/24 02:44:32;;;;;;;2.15;1.20;;;;;;;17.40;57.77;102795.06;5059478;28;20441;-75
2021/11/24 02:47:06;;;;;;;1.67;0.88;;;;;;;17.40;58.10;102789.84;5076085;28;20024;-75
2021/11/24 02:49:36;;;;;;;1.40;1.10;;;;;;;17.40;57.95;102797.66;5076627;28;20089;-76
2021/11/24 02:52:03;;;;;;;2.47;1.33;;;;;;;17.39;58.15;102790.69;5059426;28;20031;-75
2021/11/24 02:54:28;;;;;;;2.20;1.05;;;;;;;17.40;57.77;102789.00;5076180;28;20016;-76
2021/11/24 02:56:54;;;;;;;1.30;0.90;;;;;;;17.38;57.98;102783.75;5094301;28;20069;-75
2021/11/24 02:59:21;;;;;;;2.08;1.40;;;;;;;17.39;58.10;102774.19;5094074;28;20470;-76
2021/11/24 03:01:46;;;;;;;1.42;0.98;;;;;;;17.38;57.86;102769.84;5075885;28;20032;-75
2021/11/24 03:04:12;;;;;;;2.67;1.08;;;;;;;17.39;58.03;102763.78;5075845;28;20031;-76
2021/11/24 03:06:37;;;;;;;1.20;1.00;;;;;;;17.38;57.75;102755.13;5059437;28;20339;-76
2021/11/24 03:09:04;;;;;;;1.50;1.08;;;;;;;17.38;58.04;102756.84;5058678;28;20465;-76
2021/11/24 03:11:29;;;;;;;1.65;1.15;;;;;;;17.38;57.97;102756.84;5075821;28;20028;-76
2021/11/24 03:13:55;;;;;;;2.47;1.00;;;;;;;17.38;57.91;102749.91;5075770;28;20024;-76
2021/11/24 03:16:20;;;;;;;1.25;1.00;;;;;;;17.38;58.08;102736.91;5075817;28;20535;-75
2021/11/24 03:18:45;;;;;;;1.30;0.88;;;;;;;17.39;57.86;102740.38;5075713;28;20040;-76
2021/11/24 03:21:12;;;;;;;1.80;0.90;;;;;;;17.39;57.85;102729.97;5058910;28;20032;-76
2021/11/24 03:23:37;;;;;;;1.23;0.90;;;;;;;17.39;57.75;102733.44;5075858;28;20112;-76
2021/11/24 03:26:03;;;;;;;1.50;1.13;;;;;;;17.39;57.90;102733.44;5058969;28;20024;-76
2021/11/24 03:28:28;;;;;;;1.27;0.85;;;;;;;17.40;57.75;102730.00;5075636;28;20440;-76
2021/11/24 03:30:54;;;;;;;1.30;1.00;;;;;;;17.41;58.26;102728.25;5042211;28;20024;-75
2021/11/24 03:33:19;;;;;;;2.10;0.90;;;;;;;17.40;57.86;102719.59;5075603;28;20032;-76
2021/11/24 03:35:45;;;;;;;1.67;1.05;;;;;;;17.41;57.97;102715.25;5058669;28;20408;-76
2021/11/24 03:38:10;;;;;;;2.10;1.00;;;;;;;17.40;57.75;102717.00;5058480;28;20211;-75
2021/11/24 03:40:36;;;;;;;1.58;1.20;;;;;;;17.42;57.93;102715.28;5075502;28;20032;-76
2021/11/24 03:43:02;;;;;;;1.85;1.10;;;;;;;17.42;57.87;102710.09;5075472;28;20453;-75
2021/11/24 03:45:31;;;;;;;2.28;1.00;;;;;;;17.42;57.87;102707.50;5059263;28;20024;-75
2021/11/24 03:47:58;;;;;;;1.50;0.90;;;;;;;17.42;57.67;102715.28;5075568;28;20038;-75
2021/11/24 03:50:24;;;;;;;1.40;1.00;;;;;;;17.42;58.10;102699.69;5075448;28;20470;-75
2021/11/24 03:52:49;;;;;;;1.40;1.00;;;;;;;17.42;57.78;102702.28;5058862;28;20074;-75
2021/11/24 03:55:16;;;;;;;1.83;0.90;;;;;;;17.43;58.14;102697.94;5058573;28;20035;-75
2021/11/24 03:57:42;;;;;;;1.75;1.00;;;;;;;17.43;58.01;102693.63;5075349;28;20497;-75
2021/11/24 04:00:10;;;;;;;1.48;1.00;;;;;;;17.44;57.96;102695.38;5075456;28;20039;-75
2021/11/24 04:02:37;;;;;;;0.95;0.70;;;;;;;17.43;57.98;102695.34;5075302;28;20032;-76
2021/11/24 04:05:04;;;;;;;1.75;1.00;;;;;;;17.44;58.08;102689.28;5075214;28;20039;-74
2021/11/24 04:07:29;;;;;;;1.50;1.08;;;;;;;17.43;58.29;102684.94;5074895;28;20052;-75
2021/11/24 04:09:54;;;;;;;1.17;0.90;;;;;;;17.44;57.73;102695.38;5058645;28;20119;-75
2021/11/24 04:12:20;;;;;;;1.80;0.98;;;;;;;17.44;57.89;102689.28;5041795;28;20466;-75
2021/11/24 04:14:45;;;;;;;1.23;0.90;;;;;;;17.44;58.24;102679.78;5058569;28;20362;-75
2021/11/24 04:17:10;;;;;;;2.05;0.90;;;;;;;17.44;58.09;102684.97;5075225;28;20538;-75
2021/11/24 04:19:36;;;;;;;1.17;0.90;;;;;;;17.44;58.16;102679.78;5058828;28;20038;-74
2021/11/24 04:22:01;;;;;;;0.90;0.80;;;;;;;17.43;58.21;102678.00;5062429;28;20036;-75
2021/11/24 04:24:27;;;;;;;1.25;0.80;;;;;;;17.42;58.31;102678.88;5079044;28;20032;-75
2021/11/24 04:26:53;;;;;;;1.40;1.00;;;;;;;17.42;57.71;102675.34;5079097;28;20114;-76
2021/11/24 04:29:19;;;;;;;1.77;1.00;;;;;;;17.42;58.05;102664.94;5062120;28;20027;-76
2021/11/24 04:31:45;;;;;;;1.73;1.05;;;;;;;17.41;58.19;102671.88;5062999;28;20353;-74
2021/11/24 04:34:10;;;;;;;1.55;1.00;;;;;;;17.41;57.95;102661.47;5097005;28;20043;-75
2021/11/24 04:36:35;;;;;;;1.40;0.90;;;;;;;17.41;58.01;102661.47;5062055;28;20104;-75
2021/11/24 04:39:02;;;;;;;1.58;1.00;;;;;;;17.41;57.85;102653.66;5062126;28;20139;-75
2021/11/24 04:41:28;;;;;;;1.27;1.02;;;;;;;17.41;58.09;102660.59;5078753;28;20016;-75
2021/11/24 04:43:53;;;;;;;1.50;0.90;;;;;;;17.41;57.99;102656.25;5078792;28;20027;-76
2021/11/24 04:46:18;;;;;;;1.30;0.90;;;;;;;17.41;58.04;102651.06;5062056;28;20024;-76
2021/11/24 04:48:44;;;;;;;1.90;1.10;;;;;;;17.41;57.79;102648.47;5045586;28;20524;-75
2021/11/24 04:51:10;;;;;;;2.40;1.13;;;;;;;17.41;58.08;102637.19;5078664;28;20122;-76
2021/11/24 04:53:35;;;;;;;1.38;1.00;;;;;;;17.41;58.01;102640.66;5083432;28;20036;-76
2021/11/24 04:56:01;;;;;;;1.13;0.88;;;;;;;17.40;57.92;102641.50;5062964;28;20081;-75
2021/11/24 04:58:27;;;;;;;1.42;1.10;;;;;;;17.40;57.98;102638.91;5062066;28;20032;-75
2021/11/24 05:00:53;;;;;;;1.70;1.00;;;;;;;17.39;58.09;102638.88;5079207;28;20035;-76
2021/11/24 05:03:18;;;;;;;1.38;1.08;;;;;;;17.39;57.96;102637.13;5062188;28;20077;-76
2021/11/24 05:05:44;;;;;;;2.13;0.90;;;;;;;17.38;57.76;102632.78;5061416;28;20044;-75
2021/11/24 05:08:09;;;;;;;1.75;1.08;;;;;;;17.39;57.89;102633.66;5078479;28;20134;-76
2021/11/24 05:10:35;;;;;;;1.27;0.90;;;;;;;17.39;57.90;102631.94;5061492;28;20099;-76
2021/11/24 05:13:00;;;;;;;1.38;0.90;;;;;;;17.39;57.77;102631.06;5061533;28;20086;-76
2021/11/24 05:15:29;;;;;;;1.60;0.95;;;;;;;17.39;57.79;102628.47;5077977;28;20035;-76
2021/11/24 05:18:02;;;;;;;1.95;1.20;;;;;;;17.39;57.81;102628.47;5077849;28;20123;-77
2021/11/24 05:20:30;;;;;;;1.80;1.00;;;;;;;17.39;57.75;102624.13;5077809;28;20027;-75
2021/11/24 05:22:59;;;;;;;1.48;0.95;;;;;;;17.39;58.25;102624.13;5077809;28;20024;-75
2021/11/24 05:25:25;;;;;;;1.50;1.00;;;;;;;17.39;57.75;102618.91;5078424;28;20052;-75
2021/11/24 05:27:50;;;;;;;2.67;0.90;;;;;;;17.40;57.74;102615.50;5077801;28;20024;-75
2021/11/24 05:30:16;;;;;;;1.95;0.90;;;;;;;17.40;57.88;102612.88;5060823;28;20436;-75
2021/11/24 05:32:41;;;;;;;1.73;0.90;;;;;;;17.41;57.84;102611.16;5060713;28;20428;-76
2021/11/24 05:35:07;;;;;;;1.75;1.05;;;;;;;17.41;57.93;102611.16;5060910;28;20454;-76
2021/11/24 05:37:33;;;;;;;1.92;1.00;;;;;;;17.40;57.93;102612.88;5077106;28;20548;-76
2021/11/24 05:39:58;;;;;;;1.27;0.88;;;;;;;17.41;57.94;102614.63;5078021;28;20043;-76
2021/11/24 05:42:26;;;;;;;1.67;1.00;;;;;;;17.41;57.88;102614.63;5060749;28;20032;-77
2021/11/24 05:45:01;;;;;;;1.58;0.98;;;;;;;17.42;58.11;102619.00;5061165;28;20028;-78
2021/11/24 05:50:11;;;;;;;1.42;0.90;;;;;;;17.44;57.91;102619.00;5080857;28;20051;-81
2021/11/24 05:52:36;;;;;;;1.65;1.00;;;;;;;17.43;58.13;102612.94;5060750;28;20028;-79
2021/11/24 05:55:03;;;;;;;1.90;1.08;;;;;;;17.43;57.91;102596.44;5060658;28;20032;-79
2021/11/24 05:57:28;;;;;;;1.92;1.00;;;;;;;17.44;58.03;102600.78;5060218;28;20123;-79
2021/11/24 05:59:53;;;;;;;1.30;0.90;;;;;;;17.44;58.14;102599.09;5060463;28;20120;-78
2021/11/24 06:02:19;;;;;;;1.58;1.00;;;;;;;17.45;57.93;102599.97;5060364;28;20058;-80
2021/11/24 06:04:44;;;;;;;1.52;0.93;;;;;;;17.44;57.83;102599.09;5060330;28;20027;-79
2021/11/24 06:07:09;;;;;;;1.55;0.93;;;;;;;17.45;58.06;102592.16;5060383;28;20038;-78
2021/11/24 06:09:35;;;;;;;1.13;0.80;;;;;;;17.45;57.74;102592.16;5060378;28;20035;-81
2021/11/24 06:12:00;;;;;;;1.48;1.00;;;;;;;17.44;57.98;102586.06;5043678;28;20089;-79
2021/11/24 06:14:25;;;;;;;1.88;0.80;;;;;;;17.45;58.04;102579.13;5060283;28;20032;-78
2021/11/24 06:16:51;;;;;;;1.60;1.00;;;;;;;17.45;58.35;102590.41;5060269;28;20103;-75
2021/11/24 06:19:16;;;;;;;4.95;1.20;;;;;;;17.45;58.12;102573.94;5060167;28;20471;-76
2021/11/24 06:21:42;;;;;;;8.02;2.55;;;;;;;17.45;58.28;102571.34;5076759;28;20028;-76
2021/11/24 06:24:07;;;;;;;10.85;3.35;;;;;;;17.46;58.37;102570.47;5060133;28;20046;-76
2021/11/24 06:26:33;;;;;;;7.93;3.28;;;;;;;17.45;58.20;102568.72;5060230;28;20027;-76
2021/11/24 06:28:58;;;;;;;10.15;3.60;;;;;;;17.45;58.00;102564.38;5060033;28;20078;-76
2021/11/24 06:31:26;;;;;;;9.00;3.03;;;;;;;17.44;58.20;102565.25;5076719;28;20115;-76
2021/11/24 06:33:52;;;;;;;11.05;3.70;;;;;;;17.46;58.38;102557.44;5060224;28;20085;-75
2021/11/24 06:36:18;;;;;;;10.15;3.58;;;;;;;17.44;58.24;102554.84;5060086;28;20031;-77
2021/11/24 06:38:44;;;;;;;11.80;3.25;;;;;;;17.44;58.31;102553.94;5076179;28;20051;-76
2021/11/24 06:41:09;;;;;;;9.70;3.38;;;;;;;17.45;58.48;102555.72;5076490;28;20114;-76
2021/11/24 06:43:35;;;;;;;9.45;3.95;;;;;;;17.44;58.40;102553.94;5075630;28;20036;-74
2021/11/24 06:46:00;;;;;;;10.25;3.90;;;;;;;17.44;58.37;102552.25;5076571;28;20054;-75
2021/11/24 06:48:26;;;;;;;9.55;3.50;;;;;;;17.44;58.51;102548.75;5076452;28;20058;-75
2021/11/24 06:50:51;;;;;;;7.80;3.40;;;;;;;17.44;58.33;102548.75;5059757;28;20031;-75
2021/11/24 06:53:16;;;;;;;8.32;3.53;;;;;;;17.43;58.58;102552.19;5059917;28;20039;-75
2021/11/24 06:55:42;;;;;;;9.90;3.35;;;;;;;17.43;58.32;102547.88;5059917;28;20027;-75
2021/11/24 06:58:07;;;;;;;8.10;3.20;;;;;;;17.43;58.61;102542.66;5059428;28;20050;-75
2021/11/24 07:00:33;;;;;;;7.50;3.30;;;;;;;17.43;58.23;102544.41;5076239;28;20085;-74
2021/11/24 07:02:58;;;;;;;10.80;3.40;;;;;;;17.44;58.31;102551.34;5076141;28;20062;-75
2021/11/24 07:05:23;;;;;;;8.85;3.15;;;;;;;17.43;58.64;102545.25;5059444;28;20032;-75
2021/11/24 07:07:49;;;;;;;8.23;3.10;;;;;;;17.43;58.34;102547.00;5076078;28;20024;-74
2021/11/24 07:10:14;;;;;;;9.18;3.17;;;;;;;17.43;58.26;102553.06;5075877;28;20035;-75
2021/11/24 07:12:40;;;;;;;8.38;3.03;;;;;;;17.43;58.27;102547.00;5075697;28;20047;-76
2021/11/24 07:15:06;;;;;;;8.00;3.33;;;;;;;17.42;58.31;102546.13;5059250;28;20032;-76
2021/11/24 07:17:31;;;;;;;9.95;3.22;;;;;;;17.41;58.44;102536.56;5075646;28;20038;-76
2021/11/24 07:19:57;;;;;;;6.35;2.80;;;;;;;17.42;58.37;102548.72;5059055;28;20034;-77
2021/11/24 07:22:22;;;;;;;8.32;3.20;;;;;;;17.41;58.33;102533.06;5075840;28;20110;-75
2021/11/24 07:24:48;;;;;;;8.68;3.00;;;;;;;17.42;58.50;102538.31;5059143;28;20024;-75
2021/11/24 07:27:13;;;;;;;9.52;3.08;;;;;;;17.42;58.21;102545.22;5059338;28;20082;-77
2021/11/24 07:29:39;;;;;;;6.88;3.13;;;;;;;17.42;58.40;102533.13;5058901;28;20031;-76
2021/11/24 07:32:05;;;;;;;7.10;3.00;;;;;;;17.40;58.27;102534.81;5075800;28;20055;-76
2021/11/24 07:34:30;;;;;;;7.85;3.13;;;;;;;17.41;58.33;102554.78;5075831;28;20035;-76
2021/11/24 07:36:57;;;;;;;7.72;3.00;;;;;;;17.42;58.27;102537.41;5058869;28;20120;-79
2021/11/24 07:39:23;;;;;;;9.38;3.25;;;;;;;17.42;58.35;102545.22;5059392;28;20567;-76
2021/11/24 07:41:48;;;;;;;6.63;2.92;;;;;;;17.41;58.45;102539.16;5059594;28;20075;-76
2021/11/24 07:44:14;;;;;;;7.72;3.33;;;;;;;17.42;58.44;102547.84;5058821;28;20478;-78
2021/11/24 07:46:40;;;;;;;9.05;3.22;;;;;;;17.42;58.36;102545.22;5058661;28;20035;-75
2021/11/24 07:49:05;;;;;;;9.20;3.42;;;;;;;17.42;58.25;102542.63;5058959;28;20024;-76
2021/11/24 07:51:30;;;;;;;5.93;3.00;;;;;;;17.42;58.40;102542.63;5075466;28;20023;-77
2021/11/24 07:53:56;;;;;;;7.18;3.17;;;;;;;17.42;58.30;102543.53;5059800;28;20028;-79
2021/11/24 07:56:22;;;;;;;8.82;3.63;;;;;;;17.42;58.25;102545.22;5063012;28;20035;-77
2021/11/24 07:58:48;;;;;;;9.00;3.20;;;;;;;17.42;58.49;102534.81;5079621;28;20047;-76
2021/11/24 08:01:13;;;;;;;4.68;2.65;;;;;;;17.42;58.15;102525.31;5079591;28;20453;-76
2021/11/24 08:03:39;;;;;;;5.90;3.00;;;;;;;17.42;58.14;102520.09;5079439;28;20020;-76
2021/11/24 08:06:05;;;;;;;8.07;3.17;;;;;;;17.40;58.17;102524.41;5045905;28;20488;-78
2021/11/24 08:08:30;;;;;;;11.55;3.38;;;;;;;17.51;58.38;102521.09;5079313;28;20035;-78
2021/11/24 08:10:58;;;;;;;8.05;3.25;;;;;;;17.58;58.25;102513.44;5079665;28;20107;-82
2021/11/24 08:13:24;;;;;;;7.50;2.90;;;;;;;17.64;58.13;102513.53;5097646;28;20071;-78
2021/11/24 08:15:50;;;;;;;7.05;2.85;;;;;;;17.67;58.27;102513.56;5079194;28;20474;-78
2021/11/24 08:18:15;;;;;;;9.00;2.90;;;;;;;17.68;57.83;102510.16;5078909;28;20031;-78
2021/11/24 08:20:41;;;;;;;8.77;3.17;;;;;;;17.69;57.83;102504.06;5062508;28;20020;-77
2021/11/24 08:23:07;;;;;;;6.82;3.00;;;;;;;17.69;58.10;102492.78;5062489;28;20035;-79
2021/11/24 08:25:33;;;;;;;6.68;2.80;;;;;;;17.71;58.00;102492.81;5062270;28;20470;-79
2021/11/24 08:27:58;;;;;;;7.70;3.13;;;;;;;17.69;58.16;102488.44;5062211;28;20040;-77
2021/11/24 08:30:24;;;;;;;6.47;3.00;;;;;;;17.71;58.00;102485.88;5078811;28;20032;-77
2021/11/24 08:32:51;;;;;;;6.20;3.33;;;;;;;17.71;57.92;102490.22;5078876;28;20023;-78
2021/11/24 08:35:17;;;;;;;6.00;3.40;;;;;;;17.71;57.74;102483.28;5078907;28;20081;-79
2021/11/24 08:37:42;;;;;;;6.85;3.08;;;;;;;17.71;58.09;102485.00;5061784;28;20044;-78
2021/11/24 08:40:08;;;;;;;4.70;2.70;;;;;;;17.70;57.96;102473.69;5078695;28;20035;-78
2021/11/24 08:42:34;;;;;;;9.57;3.20;;;;;;;17.72;57.88;102485.00;5061980;28;20051;-78
2021/11/24 08:44:59;;;;;;;5.07;2.80;;;;;;;17.73;57.84;102481.56;5061917;28;20035;-78
2021/11/24 08:47:24;;;;;;;5.30;3.05;;;;;;;17.74;57.68;102485.03;5061734;28;20066;-80
2021/11/24 08:49:50;;;;;;;6.10;3.20;;;;;;;17.74;57.63;102482.44;5061952;28;20077;-78
2021/11/24 08:52:15;;;;;;;6.90;3.15;;;;;;;17.74;57.74;102483.31;5062008;28;20127;-78
2021/11/24 08:54:41;;;;;;;5.32;3.08;;;;;;;17.76;57.39;102473.78;5062154;28;20032;-78
2021/11/24 08:57:07;;;;;;;6.68;3.35;;;;;;;17.77;57.52;102475.56;5078685;28;20101;-78
2021/11/24 08:59:33;;;;;;;6.38;3.13;;;;;;;17.77;57.55;102465.16;5061675;28;20044;-77
2021/11/24 09:01:58;;;;;;;6.30;3.13;;;;;;;17.77;57.47;102466.84;5061683;28;20028;-80
2021/11/24 09:04:24;;;;;;;4.45;2.97;;;;;;;17.78;57.45;102472.09;5061641;28;20068;-77
2021/11/24 09:06:49;;;;;;;5.15;2.88;;;;;;;17.78;57.63;102463.41;5077598;28;20028;-77
2021/11/24 09:09:15;;;;;;;5.47;3.08;;;;;;;17.79;57.25;102462.53;5061517;28;20529;-77
2021/11/24 09:11:40;;;;;;;6.55;2.85;;;;;;;17.79;57.52;102458.25;5044766;28;20062;-77
2021/11/24 09:14:06;;;;;;;5.45;2.97;;;;;;;17.79;57.57;102458.25;5061435;28;20024;-77
2021/11/24 09:16:31;;;;;;;5.63;3.03;;;;;;;17.79;57.42;102457.34;5078439;28;20028;-77
2021/11/24 09:18:57;;;;;;;6.13;2.78;;;;;;;17.81;57.29;102453.03;5077737;28;20032;-78
2021/11/24 09:21:23;;;;;;;4.72;3.08;;;;;;;17.82;57.38;102455.69;5061229;28;20031;-78
2021/11/24 09:23:51;;;;;;;5.95;2.70;;;;;;;17.82;57.25;102447.03;5078103;28;20024;-77
2021/11/24 09:26:30;;;;;;;4.65;2.90;;;;;;;17.82;57.28;102455.69;5061236;28;20035;-78
2021/11/24 09:28:55;;;;;;;4.22;2.75;;;;;;;17.81;57.23;102443.50;5079823;28;20031;-76
2021/11/24 09:31:21;;;;;;;3.85;2.55;;;;;;;17.81;57.08;102448.72;5061127;28;20024;-77
2021/11/24 09:33:46;;;;;;;4.78;2.78;;;;;;;17.81;57.44;102446.13;5061166;28;20032;-77
2021/11/24 09:36:12;;;;;;;7.47;2.70;;;;;;;17.81;57.20;102438.31;5061020;28;20122;-77
2021/11/24 09:38:38;;;;;;;5.63;2.88;;;;;;;17.82;56.99;102442.69;5061020;28;20090;-77
2021/11/24 09:41:09;;;;;;;3.95;2.70;;;;;;;17.81;57.17;102438.31;5061023;28;20128;-76
2021/11/24 09:43:37;;;;;;;5.13;2.30;;;;;;;17.82;57.17;102444.41;5077878;28;20016;-76
2021/11/24 09:46:04;;;;;;;4.47;2.67;;;;;;;17.80;57.12;102439.16;5077438;28;20115;-77
2021/11/24 09:48:30;;;;;;;3.33;2.40;;;;;;;17.80;57.45;102433.94;5077076;28;20024;-76
2021/11/24 09:50:57;;;;;;;3.47;2.30;;;;;;;17.81;57.16;102442.63;5060561;28;20081;-76
2021/11/24 09:53:23;;;;;;;4.30;2.85;;;;;;;17.80;57.07;102435.66;5077150;28;20435;-78
2021/11/24 09:55:48;;;;;;;4.25;2.65;;;;;;;17.80;57.08;102431.34;5077327;28;20016;-79
2021/11/24 09:58:15;;;;;;;6.38;2.67;;;;;;;17.81;57.13;102434.81;5095281;28;20032;-79
2021/11/24 10:00:41;;;;;;;3.85;2.30;;;;;;;17.80;57.14;102423.53;5061014;28;20028;-76
2021/11/24 10:03:07;;;;;;;4.22;2.28;;;;;;;17.81;57.24;102417.47;5077165;28;20550;-76
2021/11/24 10:05:35;;;;;;;4.53;2.60;;;;;;;17.83;57.09;102425.31;5060489;28;20052;-78
2021/11/24 10:08:00;;;;;;;4.35;2.22;;;;;;;17.82;57.43;102416.63;5077069;28;20107;-78
2021/11/24 10:10:27;;;;;;;3.97;2.38;;;;;;;17.83;57.40;102421.00;5060435;28;20489;-77
2021/11/24 10:12:53;;;;;;;5.25;2.40;;;;;;;17.82;57.17;102411.44;5076918;28;20023;-79
2021/11/24 10:15:40;;;;;;;3.63;2.33;;;;;;;17.83;57.24;102408.00;5076895;28;20016;-75
2021/11/24 10:18:16;;;;;;;4.25;2.15;;;;;;;17.83;57.23;102405.38;5093939;28;20028;-76
2021/11/24 10:21:11;;;;;;;4.63;2.20;;;;;;;17.83;57.17;102405.38;5095066;28;20028;-78
2021/11/24 10:23:44;;;;;;;4.38;2.10;;;;;;;17.85;56.74;102401.03;5093071;28;20063;-77
2021/11/24 10:26:36;;;;;;;4.03;2.30;;;;;;;17.85;57.18;102394.97;5078223;28;20024;-78
2021/11/24 10:29:13;;;;;;;3.42;2.33;;;;;;;17.86;57.24;102394.13;5077679;28;20019;-77
2021/11/24 10:32:00;;;;;;;4.20;2.00;;;;;;;17.85;57.14;102390.63;5076631;28;20031;-76
2021/11/24 10:34:29;;;;;;;3.30;1.88;;;;;;;17.85;57.02;102379.34;5076122;28;20059;-77
2021/11/24 10:37:06;;;;;;;3.17;1.90;;;;;;;17.86;57.08;102375.91;5076291;28;20028;-82
2021/11/24 10:39:47;;;;;;;3.42;2.22;;;;;;;17.85;56.68;102367.19;5076333;28;20075;-82
2021/11/24 10:42:16;;;;;;;3.53;2.20;;;;;;;17.86;56.91;102363.75;5076379;28;20028;-79
2021/11/24 10:44:48;;;;;;;4.03;2.00;;;;;;;17.87;57.08;102362.88;5076274;28;20119;-79
2021/11/24 10:47:15;;;;;;;3.33;2.30;;;;;;;17.86;56.74;102355.06;5076269;28;20374;-81
2021/11/24 10:49:44;;;;;;;4.47;2.13;;;;;;;17.86;57.16;102348.13;5076312;28;20031;-80
2021/11/24 10:52:19;;;;;;;3.60;1.92;;;;;;;17.87;56.80;102330.75;5094448;28;20444;-77
2021/11/24 10:54:56;;;;;;;2.88;2.13;;;;;;;17.88;56.74;102340.34;5076042;28;20077;-77
2021/11/24 10:57:22;;;;;;;3.65;2.03;;;;;;;17.88;56.73;102324.72;5094138;28;20076;-77
2021/11/24 10:59:47;;;;;;;2.95;1.83;;;;;;;17.89;56.47;102321.25;5076044;28;20119;-79
2021/11/24 11:02:38;;;;;;;2.78;1.88;;;;;;;17.90;56.68;102315.19;5059478;28;20088;-79
2021/11/24 11:05:11;;;;;;;3.22;1.88;;;;;;;17.89;56.55;102310.81;5076267;28;20023;-78
2021/11/24 11:07:58;;;;;;;5.70;2.30;;;;;;;17.87;56.81;102304.72;5076020;28;20526;-81
2021/11/24 11:10:24;;;;;;;3.13;1.95;;;;;;;17.90;56.54;102304.78;5075875;28;20023;-79
2021/11/24 11:13:11;;;;;;;2.95;1.73;;;;;;;17.88;56.60;102303.88;5075804;28;20077;-78
2021/11/24 11:15:46;;;;;;;2.28;1.70;;;;;;;17.89;56.48;102303.00;5076076;28;20028;-77
2021/11/24 11:18:11;;;;;;;3.15;2.03;;;;;;;17.88;56.71;102296.06;5075682;28;20043;-79
2021/11/24 11:20:51;;;;;;;2.75;1.98;;;;;;;17.87;56.61;102283.88;5075829;28;20031;-78
2021/11/24 11:23:43;;;;;;;2.83;1.85;;;;;;;17.88;56.71;102285.66;5075904;28;20034;-80
2021/11/24 11:26:12;;;;;;;3.50;2.10;;;;;;;17.88;56.60;102285.66;5075686;28;20470;-80